TimeEST,TemperatureF,Dew PointF,Humidity,Sea Level PressureIn,VisibilityMPH,Wind Direction,Wind SpeedMPH,Gust SpeedMPH,PrecipitationIn,Events,Conditions,WindDirDegrees,DateUTC
12:52 AM,43.0,34.0,71,30.27,10.0,Variable,5.8,-,N/A,,Overcast,0,2012-11-16 05:52:00
1:52 AM,43.0,34.0,71,30.27,10.0,Variable,4.6,-,N/A,,Overcast,0,2012-11-16 06:52:00
2:52 AM,43.0,34.0,71,30.26,10.0,Variable,4.6,-,N/A,,Overcast,0,2012-11-16 07:52:00
4:52 AM,43.0,34.0,71,30.25,10.0,North,3.5,-,N/A,,Overcast,10,2012-11-16 09:52:00
5:52 AM,44.1,34.0,68,30.26,10.0,Variable,4.6,-,N/A,,Overcast,0,2012-11-16 10:52:00
7:52 AM,44.1,35.1,71,30.28,10.0,Variable,3.5,-,N/A,,Overcast,0,2012-11-16 12:52:00
8:52 AM,46.0,35.1,66,30.29,10.0,NNE,5.8,-,N/A,,Overcast,20,2012-11-16 13:52:00
9:52 AM,46.0,35.1,66,30.30,10.0,Variable,6.9,-,N/A,,Overcast,0,2012-11-16 14:52:00
10:52 AM,46.9,35.1,63,30.29,10.0,NNE,8.1,-,N/A,,Overcast,30,2012-11-16 15:52:00
11:52 AM,46.0,35.1,66,30.27,10.0,NNE,6.9,16.1,N/A,,Overcast,30,2012-11-16 16:52:00
12:52 PM,46.0,34.0,63,30.28,10.0,NNE,8.1,-,N/A,,Overcast,30,2012-11-16 17:52:00
1:52 PM,46.0,34.0,63,30.28,10.0,NNE,5.8,-,N/A,,Overcast,20,2012-11-16 18:52:00
2:52 PM,45.0,34.0,65,30.30,10.0,North,4.6,-,N/A,,Overcast,10,2012-11-16 19:52:00
3:52 PM,44.1,34.0,68,30.29,10.0,North,5.8,-,N/A,,Scattered Clouds,10,2012-11-16 20:52:00
4:52 PM,42.1,34.0,73,30.31,10.0,Variable,3.5,-,N/A,,Scattered Clouds,0,2012-11-16 21:52:00
4:59 PM,42.8,33.8,70,30.31,10.0,Variable,3.5,-,N/A,,Mostly Cloudy,0,2012-11-16 21:59:00
5:52 PM,43.0,35.1,74,30.33,10.0,Variable,4.6,-,N/A,,Overcast,0,2012-11-16 22:52:00
6:47 PM,42.8,35.6,76,30.32,10.0,Variable,4.6,-,N/A,,Scattered Clouds,0,2012-11-16 23:47:00
6:52 PM,43.0,35.1,74,30.33,10.0,Variable,5.8,-,N/A,,Partly Cloudy,0,2012-11-16 23:52:00
7:34 PM,42.8,35.6,76,30.34,10.0,NNW,4.6,-,N/A,,Mostly Cloudy,340,2012-11-17 00:34:00
7:52 PM,42.1,34.0,73,30.36,10.0,Variable,4.6,-,N/A,,Overcast,0,2012-11-17 00:52:00
8:13 PM,41.0,33.8,76,30.35,10.0,Calm,Calm,-,N/A,,Scattered Clouds,0,2012-11-17 01:13:00
8:52 PM,39.9,33.1,77,30.37,10.0,Variable,3.5,-,N/A,,Clear,0,2012-11-17 01:52:00
9:52 PM,39.0,32.0,76,30.38,10.0,Calm,Calm,-,N/A,,Clear,0,2012-11-17 02:52:00
10:52 PM,39.0,32.0,76,30.39,10.0,Calm,Calm,-,N/A,,Clear,0,2012-11-17 03:52:00
11:52 PM,39.0,32.0,76,30.40,10.0,Calm,Calm,-,N/A,,Clear,0,2012-11-17 04:52:00